Time;durP1;ratioP1;P1;durP2;ratioP2;P2;SDS_P1;SDS_P2;PMS_P1;PMS_P2;Temp;Humidity;BMP_temperature;BMP_pressure;BME280_temperature;BME280_humidity;BME280_pressure;Samples;Min_cycle;Max_cycle;Signal;HPM_P1;HPM_P2
2023/10/06 00:01:30;;;;;;;;;;;;;;;;;;5009944;28;4488;-51
2023/10/06 00:03:58;;;;;;;;;;;;;;;;;;5003597;28;4516;-51
2023/10/06 00:06:27;;;;;;;;;;;;;;;;;;4994383;28;5096;-49
2023/10/06 00:08:54;;;;;;;;;;;;;;;;;;5008301;28;1102;-49
2023/10/06 00:11:31;;;;;;;;;;;;;;;;;;5007751;28;5182;-51
2023/10/06 00:14:19;;;;;;;;;;;;;;;;;;5006875;28;4497;-49
2023/10/06 00:16:44;;;;;;;;;;;;;;;;;;4999545;28;5159;-50
2023/10/06 00:19:21;;;;;;;;;;;;;;;;;;5008323;28;4573;-50
2023/10/06 00:21:47;;;;;;;;;;;;;;;;;;5008613;28;5067;-49
2023/10/06 00:24:13;;;;;;;;;;;;;;;;;;5001467;28;5083;-49
2023/10/06 00:26:38;;;;;;;;;;;;;;;;;;5010070;28;1122;-50
2023/10/06 00:29:16;;;;;;;;;;;;;;;;;;5009436;28;4967;-50
2023/10/06 00:31:47;;;;;;;;;;;;;;;;;;5001660;28;5003;-51
2023/10/06 00:34:16;;;;;;;;;;;;;;;;;;4999786;28;5172;-48
2023/10/06 00:36:41;;;;;;;;;;;;;;;;;;5006635;28;5100;-50
2023/10/06 00:39:12;;;;;;;;;;;;;;;;;;5008130;28;5045;-51
2023/10/06 00:41:43;;;;;;;;;;;;;;;;;;5005822;28;1128;-50
2023/10/06 00:44:11;;;;;;;;;;;;;;;;;;5007208;28;5013;-49
2023/10/06 00:46:36;;;;;;;;;;;;;;;;;;5005685;28;5123;-49
2023/10/06 00:49:07;;;;;;;;;;;;;;;;;;5014751;28;5120;-51
2023/10/06 00:51:32;;;;;;;;;;;;;;;;;;5002950;28;5127;-48
2023/10/06 00:53:57;;;;;;;;;;;;;;;;;;5004268;28;5191;-49
2023/10/06 00:56:23;;;;;;;;;;;;;;;;;;5008835;28;1327;-52
2023/10/06 00:58:49;;;;;;;;;;;;;;;;;;5003916;28;5108;-48
2023/10/06 01:01:17;;;;;;;;;;;;;;;;;;5005325;28;4967;-48
2023/10/06 01:03:44;;;;;;;;;;;;;;;;;;5007020;28;5054;-50
2023/10/06 01:06:13;;;;;;;;;;;;;;;;;;5010768;28;4682;-50
2023/10/06 01:08:40;;;;;;;;;;;;;;;;;;5008093;28;1267;-50
2023/10/06 01:11:11;;;;;;;;;;;;;;;;;;4990094;28;4401;-51
2023/10/06 01:13:37;;;;;;;;;;;;;;;;;;5002404;28;5222;-50
2023/10/06 01:16:02;;;;;;;;;;;;;;;;;;5002086;28;5138;-51
2023/10/06 01:18:35;;;;;;;;;;;;;;;;;;5000855;28;4579;-50
2023/10/06 01:21:13;;;;;;;;;;;;;;;;;;5001207;28;5230;-50
2023/10/06 01:23:39;;;;;;;;;;;;;;;;;;5005956;28;1977;-50
2023/10/06 01:26:04;;;;;;;;;;;;;;;;;;4997536;28;4881;-51
2023/10/06 01:28:34;;;;;;;;;;;;;;;;;;5002264;28;5082;-52
2023/10/06 01:31:02;;;;;;;;;;;;;;;;;;5011140;28;5063;-50
2023/10/06 01:33:28;;;;;;;;;;;;;;;;;;4998988;28;4471;-50
2023/10/06 01:35:54;;;;;;;;;;;;;;;;;;5006617;28;4966;-51
2023/10/06 01:38:22;;;;;;;;;;;;;;;;;;5004299;28;1092;-49
2023/10/06 01:40:50;;;;;;;;;;;;;;;;;;5003941;28;4714;-49
2023/10/06 01:43:20;;;;;;;;;;;;;;;;;;5016734;28;4643;-48
2023/10/06 01:45:47;;;;;;;;;;;;;;;;;;5002326;28;5110;-48
2023/10/06 01:50:39;;;;;;;;;;;;;;;;;;5000083;28;3313;-51
2023/10/06 01:53:05;;;;;;;;;;;;;;;;;;5005584;28;5239;-49
2023/10/06 01:55:36;;;;;;;;;;;;;;;;;;5000027;28;5054;-51
2023/10/06 01:58:03;;;;;;;;;;;;;;;;;;5005865;28;4906;-47
2023/10/06 02:00:31;;;;;;;;;;;;;;;;;;5003430;28;5118;-49
2023/10/06 02:02:57;;;;;;;;;;;;;;;;;;5005334;28;5115;-49
2023/10/06 02:05:22;;;;;;;;;;;;;;;;;;5005007;28;1910;-50
2023/10/06 02:07:47;;;;;;;;;;;;;;;;;;5006045;28;4854;-50
2023/10/06 02:10:15;;;;;;;;;;;;;;;;;;5007404;28;4543;-49
2023/10/06 02:12:40;;;;;;;;;;;;;;;;;;5004687;28;4757;-50
2023/10/06 02:15:12;;;;;;;;;;;;;;;;;;4999687;28;5156;-49
2023/10/06 02:17:37;;;;;;;;;;;;;;;;;;5004287;28;1178;-51
2023/10/06 02:20:12;;;;;;;;;;;;;;;;;;5002670;28;5190;-48
2023/10/06 02:22:37;;;;;;;;;;;;;;;;;;5001908;28;5023;-50
2023/10/06 02:25:05;;;;;;;;;;;;;;;;;;4996295;28;5197;-49
2023/10/06 02:27:36;;;;;;;;;;;;;;;;;;5003715;28;5036;-48
2023/10/06 02:30:10;;;;;;;;;;;;;;;;;;4997565;28;4449;-48
2023/10/06 02:32:35;;;;;;;;;;;;;;;;;;5004077;28;2217;-48
2023/10/06 02:35:01;;;;;;;;;;;;;;;;;;5006702;28;4932;-51
2023/10/06 02:37:28;;;;;;;;;;;;;;;;;;5012519;28;5183;-50
2023/10/06 02:39:53;;;;;;;;;;;;;;;;;;5007247;28;5087;-49
2023/10/06 02:42:20;;;;;;;;;;;;;;;;;;4996655;28;5122;-50
2023/10/06 02:44:45;;;;;;;;;;;;;;;;;;5002986;28;1919;-48
2023/10/06 02:47:11;;;;;;;;;;;;;;;;;;5001149;28;5002;-48
2023/10/06 02:49:38;;;;;;;;;;;;;;;;;;4988175;28;5327;-51
2023/10/06 02:52:20;;;;;;;;;;;;;;;;;;5001013;28;5366;-49
2023/10/06 02:54:50;;;;;;;;;;;;;;;;;;5003109;28;5570;-49
2023/10/06 02:57:20;;;;;;;;;;;;;;;;;;4987928;28;5119;-51
2023/10/06 02:59:48;;;;;;;;;;;;;;;;;;5006212;28;3359;-49
2023/10/06 03:02:15;;;;;;;;;;;;;;;;;;5004198;28;4434;-53
2023/10/06 03:04:43;;;;;;;;;;;;;;;;;;5020830;28;5079;-48
2023/10/06 03:07:14;;;;;;;;;;;;;;;;;;5017210;28;4858;-48
2023/10/06 03:09:45;;;;;;;;;;;;;;;;;;5004425;28;4592;-52
2023/10/06 03:14:48;;;;;;;;;;;;;;;;;;5005446;28;2985;-50
2023/10/06 03:17:13;;;;;;;;;;;;;;;;;;5000908;28;4890;-50
2023/10/06 03:19:40;;;;;;;;;;;;;;;;;;5001626;28;5055;-49
2023/10/06 03:22:09;;;;;;;;;;;;;;;;;;5005812;28;5141;-49
2023/10/06 03:24:40;;;;;;;;;;;;;;;;;;5002421;28;5285;-50
2023/10/06 03:27:12;;;;;;;;;;;;;;;;;;5009987;28;4647;-49
2023/10/06 03:30:18;;;;;;;;;;;;;;;;;;5011806;28;1259;-50
2023/10/06 03:32:32;;;;;;;;;;;;;;;;;;4998843;28;4505;-49
2023/10/06 03:35:01;;;;;;;;;;;;;;;;;;5006778;28;5092;-51
2023/10/06 03:37:37;;;;;;;;;;;;;;;;;;5007584;28;4989;-50
2023/10/06 03:40:13;;;;;;;;;;;;;;;;;;5008065;28;4503;-49
2023/10/06 03:42:38;;;;;;;;;;;;;;;;;;5003638;28;4523;-50
2023/10/06 03:45:18;;;;;;;;;;;;;;;;;;5009432;28;5134;-48
2023/10/06 03:47:43;;;;;;;;;;;;;;;;;;5006151;28;2345;-47
2023/10/06 03:50:09;;;;;;;;;;;;;;;;;;5009680;28;4614;-49
2023/10/06 03:52:34;;;;;;;;;;;;;;;;;;5008947;28;5029;-48
2023/10/06 03:54:59;;;;;;;;;;;;;;;;;;4988307;28;5333;-49
2023/10/06 03:57:24;;;;;;;;;;;;;;;;;;5007187;28;5100;-49
2023/10/06 03:59:50;;;;;;;;;;;;;;;;;;5005116;28;2233;-49
2023/10/06 04:02:15;;;;;;;;;;;;;;;;;;5009506;28;4956;-49
2023/10/06 04:04:42;;;;;;;;;;;;;;;;;;5009236;28;4878;-51
2023/10/06 04:07:07;;;;;;;;;;;;;;;;;;4985779;28;4512;-50
2023/10/06 04:09:33;;;;;;;;;;;;;;;;;;4992094;28;4641;-50
2023/10/06 04:12:00;;;;;;;;;;;;;;;;;;5009371;28;5042;-48
2023/10/06 04:14:28;;;;;;;;;;;;;;;;;;5003771;28;1320;-48
2023/10/06 04:16:53;;;;;;;;;;;;;;;;;;5006295;28;4945;-52
2023/10/06 04:19:18;;;;;;;;;;;;;;;;;;5003142;28;4986;-51
2023/10/06 04:21:44;;;;;;;;;;;;;;;;;;5003843;28;4987;-48
2023/10/06 04:24:10;;;;;;;;;;;;;;;;;;5004937;28;5098;-49
2023/10/06 04:26:35;;;;;;;;;;;;;;;;;;5015731;28;1773;-48
2023/10/06 04:29:01;;;;;;;;;;;;;;;;;;5002544;28;5010;-51
2023/10/06 04:31:26;;;;;;;;;;;;;;;;;;5003422;28;5073;-50
2023/10/06 04:33:53;;;;;;;;;;;;;;;;;;5005396;28;5064;-51
2023/10/06 04:36:23;;;;;;;;;;;;;;;;;;5005466;28;5164;-48
2023/10/06 04:38:48;;;;;;;;;;;;;;;;;;5004746;28;1404;-50
2023/10/06 04:41:14;;;;;;;;;;;;;;;;;;4999732;28;4451;-49
2023/10/06 04:43:44;;;;;;;;;;;;;;;;;;5003607;28;5355;-48
2023/10/06 04:46:09;;;;;;;;;;;;;;;;;;5007066;28;4474;-50
2023/10/06 04:48:35;;;;;;;;;;;;;;;;;;5003403;28;4993;-49
2023/10/06 04:51:03;;;;;;;;;;;;;;;;;;5008025;28;5412;-51
2023/10/06 04:53:28;;;;;;;;;;;;;;;;;;5008295;28;5076;-51
2023/10/06 04:55:53;;;;;;;;;;;;;;;;;;5008334;28;4690;-48
2023/10/06 04:58:19;;;;;;;;;;;;;;;;;;5008628;28;6088;-51
2023/10/06 05:00:53;;;;;;;;;;;;;;;;;;5008362;28;5017;-49
2023/10/06 05:03:18;;;;;;;;;;;;;;;;;;5005640;28;5132;-49
2023/10/06 05:05:44;;;;;;;;;;;;;;;;;;5008668;28;1988;-51
2023/10/06 05:08:09;;;;;;;;;;;;;;;;;;5009594;28;5086;-48
2023/10/06 05:10:34;;;;;;;;;;;;;;;;;;5007751;28;4480;-52
2023/10/06 05:13:02;;;;;;;;;;;;;;;;;;5005412;28;5324;-49
2023/10/06 05:15:30;;;;;;;;;;;;;;;;;;4992139;28;4679;-51
2023/10/06 05:17:58;;;;;;;;;;;;;;;;;;4999719;28;5144;-48
2023/10/06 05:20:30;;;;;;;;;;;;;;;;;;5002382;28;1283;-52
2023/10/06 05:23:07;;;;;;;;;;;;;;;;;;5007843;28;4659;-51
2023/10/06 05:25:35;;;;;;;;;;;;;;;;;;5006309;28;4758;-50
2023/10/06 05:28:00;;;;;;;;;;;;;;;;;;5022499;28;4485;-51
2023/10/06 05:30:26;;;;;;;;;;;;;;;;;;5003186;28;4861;-51
2023/10/06 05:32:52;;;;;;;;;;;;;;;;;;5007471;28;1085;-49
2023/10/06 05:35:19;;;;;;;;;;;;;;;;;;5002485;28;5047;-49
2023/10/06 05:37:44;;;;;;;;;;;;;;;;;;5007613;28;5052;-50
2023/10/06 05:40:15;;;;;;;;;;;;;;;;;;4993358;28;5062;-49
2023/10/06 05:42:41;;;;;;;;;;;;;;;;;;4998566;28;4483;-51
2023/10/06 05:45:15;;;;;;;;;;;;;;;;;;5004318;28;5111;-49
2023/10/06 05:47:40;;;;;;;;;;;;;;;;;;5003393;28;3343;-51
2023/10/06 05:50:08;;;;;;;;;;;;;;;;;;5004983;28;4898;-52
2023/10/06 05:52:38;;;;;;;;;;;;;;;;;;5001092;28;4505;-50
2023/10/06 05:55:08;;;;;;;;;;;;;;;;;;5001281;28;5201;-50
2023/10/06 05:57:34;;;;;;;;;;;;;;;;;;4999549;28;4670;-50
2023/10/06 06:00:01;;;;;;;;;;;;;;;;;;5004459;28;5056;-49
2023/10/06 06:02:29;;;;;;;;;;;;;;;;;;5006423;28;1258;-52
2023/10/06 06:04:57;;;;;;;;;;;;;;;;;;5005680;28;4462;-50
2023/10/06 06:07:23;;;;;;;;;;;;;;;;;;5005752;28;5020;-51
2023/10/06 06:09:49;;;;;;;;;;;;;;;;;;5006221;28;5026;-49
2023/10/06 06:12:19;;;;;;;;;;;;;;;;;;5006527;28;4517;-48
2023/10/06 06:14:44;;;;;;;;;;;;;;;;;;5006212;28;1740;-48
2023/10/06 06:17:09;;;;;;;;;;;;;;;;;;5005972;28;4897;-49
2023/10/06 06:19:35;;;;;;;;;;;;;;;;;;5003138;28;5141;-51
2023/10/06 06:22:05;;;;;;;;;;;;;;;;;;5005471;28;5095;-48
2023/10/06 06:24:30;;;;;;;;;;;;;;;;;;5001673;28;4532;-51
2023/10/06 06:26:56;;;;;;;;;;;;;;;;;;5000414;28;5182;-48
2023/10/06 06:29:22;;;;;;;;;;;;;;;;;;5007763;28;1098;-49
2023/10/06 06:31:48;;;;;;;;;;;;;;;;;;5004233;28;4583;-51
2023/10/06 06:34:13;;;;;;;;;;;;;;;;;;5006773;28;5012;-48
2023/10/06 06:36:39;;;;;;;;;;;;;;;;;;5006391;28;4474;-49
2023/10/06 06:39:04;;;;;;;;;;;;;;;;;;5000558;28;4993;-47
2023/10/06 06:41:30;;;;;;;;;;;;;;;;;;5001500;28;1149;-48
2023/10/06 06:43:58;;;;;;;;;;;;;;;;;;5000456;28;4813;-49
2023/10/06 06:46:26;;;;;;;;;;;;;;;;;;5002949;28;4990;-49
2023/10/06 06:48:52;;;;;;;;;;;;;;;;;;5007219;28;5022;-50
2023/10/06 06:51:18;;;;;;;;;;;;;;;;;;5007362;28;5116;-50
2023/10/06 06:53:45;;;;;;;;;;;;;;;;;;5003606;28;4878;-48
2023/10/06 06:56:10;;;;;;;;;;;;;;;;;;4986676;28;4914;-49
2023/10/06 06:58:37;;;;;;;;;;;;;;;;;;5003030;28;5170;-49
2023/10/06 07:01:05;;;;;;;;;;;;;;;;;;5000025;28;5034;-51
2023/10/06 07:03:30;;;;;;;;;;;;;;;;;;5016726;28;4530;-51
2023/10/06 07:05:56;;;;;;;;;;;;;;;;;;5006561;28;5030;-50
2023/10/06 07:08:21;;;;;;;;;;;;;;;;;;5003101;28;1616;-51
2023/10/06 07:10:52;;;;;;;;;;;;;;;;;;5006472;28;4610;-50
2023/10/06 07:13:17;;;;;;;;;;;;;;;;;;5002808;28;5069;-51
2023/10/06 07:15:42;;;;;;;;;;;;;;;;;;5003407;28;5103;-51
2023/10/06 07:18:10;;;;;;;;;;;;;;;;;;5004015;28;5098;-52
2023/10/06 07:20:35;;;;;;;;;;;;;;;;;;5006529;28;3271;-52
2023/10/06 07:23:01;;;;;;;;;;;;;;;;;;5001612;28;4943;-52
2023/10/06 07:25:26;;;;;;;;;;;;;;;;;;5004083;28;5267;-57
2023/10/06 07:27:57;;;;;;;;;;;;;;;;;;4990966;28;5279;-62
2023/10/06 07:30:22;;;;;;;;;;;;;;;;;;4999542;28;5156;-56
2023/10/06 07:32:48;;;;;;;;;;;;;;;;;;4999056;28;3029;-70
2023/10/06 07:35:14;;;;;;;;;;;;;;;;;;4995112;28;4458;-70
2023/10/06 07:37:42;;;;;;;;;;;;;;;;;;5001219;28;4996;-80
2023/10/06 07:40:14;;;;;;;;;;;;;;;;;;5011337;28;5047;-77
2023/10/06 07:42:44;;;;;;;;;;;;;;;;;;5009995;28;4534;-63
2023/10/06 07:45:09;;;;;;;;;;;;;;;;;;4998228;28;5039;-73
2023/10/06 07:47:36;;;;;;;;;;;;;;;;;;4998852;28;3088;-71
2023/10/06 07:50:02;;;;;;;;;;;;;;;;;;5001520;28;4935;-76
2023/10/06 07:52:27;;;;;;;;;;;;;;;;;;4995470;28;5233;-75
2023/10/06 07:54:52;;;;;;;;;;;;;;;;;;4996496;28;4789;-74
2023/10/06 07:57:18;;;;;;;;;;;;;;;;;;4988380;28;4549;-72
2023/10/06 07:59:43;;;;;;;;;;;;;;;;;;5008680;28;1119;-73
2023/10/06 08:02:10;;;;;;;;;;;;;;;;;;5004479;28;5098;-53
2023/10/06 08:04:35;;;;;;;;;;;;;;;;;;4999010;28;4492;-54
2023/10/06 08:07:00;;;;;;;;;;;;;;;;;;5006541;28;5482;-55
2023/10/06 08:09:26;;;;;;;;;;;;;;;;;;5000594;28;5378;-55
2023/10/06 08:11:54;;;;;;;;;;;;;;;;;;5005494;28;1614;-56
2023/10/06 08:14:20;;;;;;;;;;;;;;;;;;4993070;28;6700;-55
2023/10/06 08:16:45;;;;;;;;;;;;;;;;;;5001926;28;4595;-54
2023/10/06 08:19:11;;;;;;;;;;;;;;;;;;5005571;28;5103;-57
2023/10/06 08:21:37;;;;;;;;;;;;;;;;;;5002479;28;5636;-54
2023/10/06 08:24:02;;;;;;;;;;;;;;;;;;5005344;28;5081;-55
2023/10/06 08:26:28;;;;;;;;;;;;;;;;;;5002595;28;1562;-57
2023/10/06 08:28:54;;;;;;;;;;;;;;;;;;5006619;28;4517;-56
2023/10/06 08:31:19;;;;;;;;;;;;;;;;;;4998768;28;5177;-56
2023/10/06 08:33:45;;;;;;;;;;;;;;;;;;4998907;28;4701;-57
2023/10/06 08:36:10;;;;;;;;;;;;;;;;;;5003764;28;5143;-56
2023/10/06 08:38:36;;;;;;;;;;;;;;;;;;5011984;28;1263;-56
2023/10/06 08:41:02;;;;;;;;;;;;;;;;;;5000348;28;4840;-55
2023/10/06 08:43:27;;;;;;;;;;;;;;;;;;5005871;28;4604;-56
2023/10/06 08:45:54;;;;;;;;;;;;;;;;;;4995121;28;5143;-56
2023/10/06 08:48:19;;;;;;;;;;;;;;;;;;5001323;28;5148;-56
2023/10/06 08:50:45;;;;;;;;;;;;;;;;;;4998699;28;1241;-55
2023/10/06 08:53:10;;;;;;;;;;;;;;;;;;4995669;28;5275;-56
2023/10/06 08:55:36;;;;;;;;;;;;;;;;;;5005288;28;4893;-57
2023/10/06 08:58:01;;;;;;;;;;;;;;;;;;4997811;28;4962;-55
2023/10/06 09:00:32;;;;;;;;;;;;;;;;;;5003028;28;4972;-57
2023/10/06 09:03:07;;;;;;;;;;;;;;;;;;5001971;28;4963;-56
2023/10/06 09:05:32;;;;;;;;;;;;;;;;;;5002748;28;3328;-62
2023/10/06 09:07:57;;;;;;;;;;;;;;;;;;5005506;28;4978;-59
2023/10/06 09:10:24;;;;;;;;;;;;;;;;;;5004752;28;5314;-60
2023/10/06 09:12:59;;;;;;;;;;;;;;;;;;5006273;28;4885;-64
2023/10/06 09:15:24;;;;;;;;;;;;;;;;;;4997585;28;5136;-51
2023/10/06 09:17:51;;;;;;;;;;;;;;;;;;4989894;28;3337;-59
2023/10/06 09:20:39;;;;;;;;;;;;;;;;;;5005200;28;5089;-59
2023/10/06 09:23:05;;;;;;;;;;;;;;;;;;4999426;28;4906;-59
2023/10/06 09:25:48;;;;;;;;;;;;;;;;;;4985444;28;4620;-61
2023/10/06 09:28:14;;;;;;;;;;;;;;;;;;5003624;28;4470;-62
2023/10/06 09:31:01;;;;;;;;;;;;;;;;;;5004491;28;4935;-59
2023/10/06 09:33:48;;;;;;;;;;;;;;;;;;4997900;28;5139;-59
2023/10/06 09:36:21;;;;;;;;;;;;;;;;;;4999485;28;5118;-60
2023/10/06 09:38:46;;;;;;;;;;;;;;;;;;5006684;28;3296;-64
2023/10/06 09:41:11;;;;;;;;;;;;;;;;;;5007029;28;4601;-63
2023/10/06 09:43:40;;;;;;;;;;;;;;;;;;5004039;28;4634;-61
2023/10/06 09:46:09;;;;;;;;;;;;;;;;;;5002564;28;4937;-59
2023/10/06 09:48:38;;;;;;;;;;;;;;;;;;4996010;28;5107;-59
2023/10/06 09:51:07;;;;;;;;;;;;;;;;;;5004610;28;5289;-59
2023/10/06 09:53:37;;;;;;;;;;;;;;;;;;5022325;28;5103;-60
2023/10/06 09:56:06;;;;;;;;;;;;;;;;;;5005045;28;5078;-60
2023/10/06 09:58:31;;;;;;;;;;;;;;;;;;5012716;28;5040;-62
2023/10/06 10:00:56;;;;;;;;;;;;;;;;;;5002297;28;5064;-60
2023/10/06 10:03:22;;;;;;;;;;;;;;;;;;4988405;28;5087;-61
2023/10/06 10:05:47;;;;;;;;;;;;;;;;;;5005265;28;3403;-61
2023/10/06 10:08:13;;;;;;;;;;;;;;;;;;5001457;28;4991;-62
2023/10/06 10:10:39;;;;;;;;;;;;;;;;;;4997987;28;4690;-62
2023/10/06 10:13:25;;;;;;;;;;;;;;;;;;5021131;28;5184;-63
2023/10/06 10:16:11;;;;;;;;;;;;;;;;;;4989662;28;4710;-62
2023/10/06 10:18:36;;;;;;;;;;;;;;;;;;5004638;28;5587;-61
2023/10/06 10:21:01;;;;;;;;;;;;;;;;;;5001756;28;5122;-61
2023/10/06 10:23:29;;;;;;;;;;;;;;;;;;5006045;28;1471;-62
2023/10/06 10:26:00;;;;;;;;;;;;;;;;;;5000480;28;5094;-62
2023/10/06 10:28:27;;;;;;;;;;;;;;;;;;5003776;28;4982;-59
2023/10/06 10:30:59;;;;;;;;;;;;;;;;;;4994693;28;4494;-48
2023/10/06 10:33:30;;;;;;;;;;;;;;;;;;4999001;28;5106;-50
2023/10/06 10:36:17;;;;;;;;;;;;;;;;;;5004017;28;4889;-48
2023/10/06 10:38:56;;;;;;;;;;;;;;;;;;4996217;28;1396;-49
2023/10/06 10:41:21;;;;;;;;;;;;;;;;;;5008971;28;5087;-46
2023/10/06 10:43:48;;;;;;;;;;;;;;;;;;5001174;28;5183;-49
2023/10/06 10:46:14;;;;;;;;;;;;;;;;;;4999944;28;5277;-47
2023/10/06 10:48:47;;;;;;;;;;;;;;;;;;5003284;28;5022;-48
2023/10/06 10:51:13;;;;;;;;;;;;;;;;;;5005854;28;4460;-47
2023/10/06 10:53:41;;;;;;;;;;;;;;;;;;5001710;28;5109;-48
2023/10/06 10:56:06;;;;;;;;;;;;;;;;;;5005083;28;4982;-49
2023/10/06 10:58:44;;;;;;;;;;;;;;;;;;5005090;28;4993;-48
2023/10/06 11:01:29;;;;;;;;;;;;;;;;;;5003678;28;5060;-47
2023/10/06 11:04:14;;;;;;;;;;;;;;;;;;4992775;28;5099;-47
2023/10/06 11:06:39;;;;;;;;;;;;;;;;;;4999086;28;4478;-49
2023/10/06 11:09:12;;;;;;;;;;;;;;;;;;5010946;28;4743;-50
2023/10/06 11:11:40;;;;;;;;;;;;;;;;;;5001566;28;1346;-50
2023/10/06 11:14:05;;;;;;;;;;;;;;;;;;4987027;28;4691;-47
2023/10/06 11:16:32;;;;;;;;;;;;;;;;;;5004295;28;5040;-50
2023/10/06 11:18:57;;;;;;;;;;;;;;;;;;5005255;28;4690;-50
2023/10/06 11:21:26;;;;;;;;;;;;;;;;;;4997721;28;5010;-50
2023/10/06 11:23:51;;;;;;;;;;;;;;;;;;5004748;28;1316;-49
2023/10/06 11:26:26;;;;;;;;;;;;;;;;;;5001532;28;5055;-49
2023/10/06 11:28:51;;;;;;;;;;;;;;;;;;5008707;28;5437;-50
2023/10/06 11:31:17;;;;;;;;;;;;;;;;;;5006952;28;5071;-48
2023/10/06 11:33:42;;;;;;;;;;;;;;;;;;5002464;28;4560;-48
2023/10/06 11:36:07;;;;;;;;;;;;;;;;;;5002750;28;4489;-47
2023/10/06 11:38:32;;;;;;;;;;;;;;;;;;5006366;28;1529;-48
2023/10/06 11:40:58;;;;;;;;;;;;;;;;;;4997556;28;4620;-46
2023/10/06 11:43:23;;;;;;;;;;;;;;;;;;5009087;28;5102;-46
2023/10/06 11:45:57;;;;;;;;;;;;;;;;;;5003549;28;5167;-47
2023/10/06 11:48:28;;;;;;;;;;;;;;;;;;5006653;28;5064;-51
2023/10/06 11:51:06;;;;;;;;;;;;;;;;;;5006926;28;4684;-65
2023/10/06 11:53:35;;;;;;;;;;;;;;;;;;5005007;28;5188;-69
2023/10/06 11:56:12;;;;;;;;;;;;;;;;;;5004089;28;5155;-66
2023/10/06 11:58:37;;;;;;;;;;;;;;;;;;4995320;28;4892;-67
2023/10/06 12:01:03;;;;;;;;;;;;;;;;;;5008621;28;5038;-66
2023/10/06 12:03:42;;;;;;;;;;;;;;;;;;5010286;28;4949;-63
2023/10/06 12:06:11;;;;;;;;;;;;;;;;;;5018969;28;5106;-67
2023/10/06 12:08:43;;;;;;;;;;;;;;;;;;5009580;28;3384;-60
2023/10/06 12:11:11;;;;;;;;;;;;;;;;;;5006952;28;4723;-56
2023/10/06 12:13:37;;;;;;;;;;;;;;;;;;5007590;28;5074;-60
2023/10/06 12:16:10;;;;;;;;;;;;;;;;;;5010460;28;5108;-64
2023/10/06 12:18:35;;;;;;;;;;;;;;;;;;5000047;28;5091;-62
2023/10/06 12:21:00;;;;;;;;;;;;;;;;;;5007941;28;4538;-61
2023/10/06 12:23:25;;;;;;;;;;;;;;;;;;5008851;28;1357;-61
2023/10/06 12:25:51;;;;;;;;;;;;;;;;;;4989785;28;5123;-63
2023/10/06 12:28:16;;;;;;;;;;;;;;;;;;5008023;28;5043;-60
2023/10/06 12:30:41;;;;;;;;;;;;;;;;;;5008250;28;4980;-60
2023/10/06 12:33:10;;;;;;;;;;;;;;;;;;5005291;28;4454;-60
2023/10/06 12:35:36;;;;;;;;;;;;;;;;;;5006524;28;2237;-59
2023/10/06 12:38:01;;;;;;;;;;;;;;;;;;5008611;28;4993;-60
2023/10/06 12:40:27;;;;;;;;;;;;;;;;;;5006541;28;5017;-62
2023/10/06 12:42:52;;;;;;;;;;;;;;;;;;5003019;28;4968;-61
2023/10/06 12:45:17;;;;;;;;;;;;;;;;;;5002133;28;5113;-59
2023/10/06 12:47:45;;;;;;;;;;;;;;;;;;5003550;28;3432;-58
2023/10/06 12:50:13;;;;;;;;;;;;;;;;;;5007316;28;4524;-62
2023/10/06 12:52:39;;;;;;;;;;;;;;;;;;4999368;28;4510;-61
2023/10/06 12:55:11;;;;;;;;;;;;;;;;;;5003951;28;5891;-61
2023/10/06 12:57:40;;;;;;;;;;;;;;;;;;5005458;28;4857;-60
2023/10/06 13:00:06;;;;;;;;;;;;;;;;;;5005183;28;4675;-63
2023/10/06 13:02:32;;;;;;;;;;;;;;;;;;5007160;28;3357;-61
2023/10/06 13:05:04;;;;;;;;;;;;;;;;;;5005757;28;4564;-66
2023/10/06 13:07:31;;;;;;;;;;;;;;;;;;5007374;28;5043;-55
2023/10/06 13:09:58;;;;;;;;;;;;;;;;;;5006219;28;4772;-65
2023/10/06 13:12:25;;;;;;;;;;;;;;;;;;5003610;28;5152;-58
2023/10/06 13:14:51;;;;;;;;;;;;;;;;;;5005736;28;3350;-61
2023/10/06 13:17:17;;;;;;;;;;;;;;;;;;5003177;28;5188;-58
2023/10/06 13:19:42;;;;;;;;;;;;;;;;;;5004324;28;4493;-58
2023/10/06 13:22:07;;;;;;;;;;;;;;;;;;4995300;28;5086;-58
2023/10/06 13:24:34;;;;;;;;;;;;;;;;;;5006436;28;5755;-59
2023/10/06 13:26:59;;;;;;;;;;;;;;;;;;5004985;28;5004;-58
2023/10/06 13:29:24;;;;;;;;;;;;;;;;;;5004868;28;3153;-58
2023/10/06 13:31:49;;;;;;;;;;;;;;;;;;5001190;28;4498;-58
2023/10/06 13:34:17;;;;;;;;;;;;;;;;;;4989014;28;4469;-56
2023/10/06 13:36:42;;;;;;;;;;;;;;;;;;5006462;28;4995;-59
2023/10/06 13:39:09;;;;;;;;;;;;;;;;;;5005945;28;5074;-56
2023/10/06 13:41:41;;;;;;;;;;;;;;;;;;4993631;28;1147;-54
2023/10/06 13:44:06;;;;;;;;;;;;;;;;;;5004692;28;4810;-57
2023/10/06 13:46:31;;;;;;;;;;;;;;;;;;4985771;28;4502;-59
2023/10/06 13:48:57;;;;;;;;;;;;;;;;;;5005055;28;4891;-60
2023/10/06 13:51:22;;;;;;;;;;;;;;;;;;5005317;28;5309;-57
2023/10/06 13:53:47;;;;;;;;;;;;;;;;;;5007142;28;5247;-60
2023/10/06 13:56:12;;;;;;;;;;;;;;;;;;5000968;28;4401;-55
2023/10/06 13:58:38;;;;;;;;;;;;;;;;;;5003033;28;5019;-60
2023/10/06 14:01:04;;;;;;;;;;;;;;;;;;5002576;28;4601;-61
2023/10/06 14:03:30;;;;;;;;;;;;;;;;;;5011195;28;5023;-67
2023/10/06 14:05:57;;;;;;;;;;;;;;;;;;5002567;28;4526;-68
2023/10/06 14:08:22;;;;;;;;;;;;;;;;;;5007397;28;1151;-79
2023/10/06 14:10:49;;;;;;;;;;;;;;;;;;5003977;28;5413;-66
2023/10/06 14:13:23;;;;;;;;;;;;;;;;;;5011272;28;5194;-69
2023/10/06 14:15:54;;;;;;;;;;;;;;;;;;4999766;28;4585;-65
2023/10/06 14:18:24;;;;;;;;;;;;;;;;;;5002615;28;5204;-65
2023/10/06 14:20:52;;;;;;;;;;;;;;;;;;4997896;28;3377;-64
2023/10/06 14:23:30;;;;;;;;;;;;;;;;;;4994455;28;4956;-73
2023/10/06 14:25:56;;;;;;;;;;;;;;;;;;5006629;28;4459;-62
2023/10/06 14:28:24;;;;;;;;;;;;;;;;;;4999676;28;4489;-66
2023/10/06 14:30:53;;;;;;;;;;;;;;;;;;5005189;28;5047;-65
2023/10/06 14:33:38;;;;;;;;;;;;;;;;;;4999538;28;5074;-61
2023/10/06 14:46:32;;;;;;;;;;;;;;;;;;5003697;28;5275;-62
2023/10/06 14:49:01;;;;;;;;;;;;;;;;;;4988594;28;4532;-61
2023/10/06 14:51:26;;;;;;;;;;;;;;;;;;4997514;28;4524;-69
2023/10/06 14:53:51;;;;;;;;;;;;;;;;;;5004492;28;5172;-62
2023/10/06 14:56:17;;;;;;;;;;;;;;;;;;5004515;28;4626;-63
2023/10/06 14:58:44;;;;;;;;;;;;;;;;;;4986401;28;4538;-59
2023/10/06 15:01:12;;;;;;;;;;;;;;;;;;5000032;28;4489;-60
2023/10/06 15:03:37;;;;;;;;;;;;;;;;;;5003330;28;4675;-60
2023/10/06 15:06:05;;;;;;;;;;;;;;;;;;4991860;28;4642;-61
2023/10/06 15:08:33;;;;;;;;;;;;;;;;;;5006444;28;3388;-61
2023/10/06 15:10:59;;;;;;;;;;;;;;;;;;5008712;28;5132;-59
2023/10/06 15:13:24;;;;;;;;;;;;;;;;;;5003978;28;5205;-63
2023/10/06 15:15:49;;;;;;;;;;;;;;;;;;5001895;28;4917;-64
2023/10/06 15:18:15;;;;;;;;;;;;;;;;;;5006582;28;4544;-62
2023/10/06 15:20:42;;;;;;;;;;;;;;;;;;5006130;28;1157;-63
2023/10/06 15:23:13;;;;;;;;;;;;;;;;;;5009225;28;4957;-63
2023/10/06 15:25:41;;;;;;;;;;;;;;;;;;5001086;28;4464;-62
2023/10/06 15:28:07;;;;;;;;;;;;;;;;;;5004142;28;5146;-62
2023/10/06 15:30:33;;;;;;;;;;;;;;;;;;5009564;28;5170;-63
2023/10/06 15:32:58;;;;;;;;;;;;;;;;;;5007870;28;5074;-66
2023/10/06 15:35:28;;;;;;;;;;;;;;;;;;5007694;28;3371;-52
2023/10/06 15:37:53;;;;;;;;;;;;;;;;;;5007682;28;5185;-49
2023/10/06 15:40:23;;;;;;;;;;;;;;;;;;5003188;28;5128;-49
2023/10/06 15:42:48;;;;;;;;;;;;;;;;;;5006338;28;4628;-50
2023/10/06 15:45:13;;;;;;;;;;;;;;;;;;5007771;28;5107;-48
2023/10/06 15:47:38;;;;;;;;;;;;;;;;;;5008453;28;3417;-49
2023/10/06 15:50:05;;;;;;;;;;;;;;;;;;5006085;28;4981;-48
2023/10/06 15:52:30;;;;;;;;;;;;;;;;;;5009241;28;5065;-48
2023/10/06 15:54:55;;;;;;;;;;;;;;;;;;5022900;28;5083;-49
2023/10/06 15:57:21;;;;;;;;;;;;;;;;;;5004661;28;5236;-49
2023/10/06 15:59:46;;;;;;;;;;;;;;;;;;5005447;28;1485;-48
2023/10/06 16:02:13;;;;;;;;;;;;;;;;;;5006272;28;4468;-47
2023/10/06 16:04:39;;;;;;;;;;;;;;;;;;4991459;28;5197;-51
2023/10/06 16:07:04;;;;;;;;;;;;;;;;;;5004311;28;4641;-52
2023/10/06 16:09:29;;;;;;;;;;;;;;;;;;5006205;28;5157;-49
2023/10/06 16:11:57;;;;;;;;;;;;;;;;;;5007404;28;5102;-49
2023/10/06 16:14:22;;;;;;;;;;;;;;;;;;4997567;28;1658;-50
2023/10/06 16:16:47;;;;;;;;;;;;;;;;;;5004206;28;5016;-49
2023/10/06 16:19:13;;;;;;;;;;;;;;;;;;5002370;28;4676;-50
2023/10/06 16:21:41;;;;;;;;;;;;;;;;;;5005067;28;4864;-51
2023/10/06 16:24:06;;;;;;;;;;;;;;;;;;5005293;28;5182;-51
2023/10/06 16:26:32;;;;;;;;;;;;;;;;;;5004309;28;1967;-46
2023/10/06 16:28:58;;;;;;;;;;;;;;;;;;5009399;28;5082;-50
2023/10/06 16:31:23;;;;;;;;;;;;;;;;;;5002206;28;5114;-52
2023/10/06 16:33:48;;;;;;;;;;;;;;;;;;5007234;28;5042;-47
2023/10/06 16:36:13;;;;;;;;;;;;;;;;;;4986765;28;4620;-47
2023/10/06 16:38:40;;;;;;;;;;;;;;;;;;5009054;28;1284;-48
2023/10/06 16:41:06;;;;;;;;;;;;;;;;;;5008536;28;4582;-49
2023/10/06 16:43:34;;;;;;;;;;;;;;;;;;5008250;28;4682;-48
2023/10/06 16:46:03;;;;;;;;;;;;;;;;;;5000370;28;5213;-48
2023/10/06 16:48:28;;;;;;;;;;;;;;;;;;5005049;28;5054;-48
2023/10/06 16:50:53;;;;;;;;;;;;;;;;;;5008520;28;5122;-49
2023/10/06 16:53:19;;;;;;;;;;;;;;;;;;5008520;28;5173;-47
2023/10/06 16:55:44;;;;;;;;;;;;;;;;;;5009072;28;5226;-49
2023/10/06 16:58:09;;;;;;;;;;;;;;;;;;5007974;28;5067;-49
2023/10/06 17:00:35;;;;;;;;;;;;;;;;;;5006037;28;5035;-49
2023/10/06 17:03:00;;;;;;;;;;;;;;;;;;5006171;28;5164;-50
2023/10/06 17:05:26;;;;;;;;;;;;;;;;;;4999878;28;1914;-52
2023/10/06 17:07:51;;;;;;;;;;;;;;;;;;4998926;28;5050;-51
2023/10/06 17:10:18;;;;;;;;;;;;;;;;;;5007300;28;4731;-48
2023/10/06 17:12:44;;;;;;;;;;;;;;;;;;5003148;28;5338;-48
2023/10/06 17:15:10;;;;;;;;;;;;;;;;;;5001571;28;5099;-47
2023/10/06 17:17:43;;;;;;;;;;;;;;;;;;5009140;28;1192;-47
2023/10/06 17:20:14;;;;;;;;;;;;;;;;;;5003607;28;4448;-47
2023/10/06 17:22:39;;;;;;;;;;;;;;;;;;5002775;28;5005;-49